Aviation Digital Data Service (ADDS)

Output produced by METARs form (0239 UTC 26 April 2019)
found at http://www.aviationweather.gov/metar/data/
 
METAR text: EPBY 260230Z 09003KT CAVOK 11/09 Q1011
Conditions at: EPBY (BYDGOSZCZ , PL) observed 0230 UTC 26 April 2019
Temperature: 11.0°C (52°F)
Dewpoint: 9.0°C (48°F) [RH = 87%]
Pressure (altimeter): 29.85 inches Hg (1011.0 mb)
Winds: from the E (90 degrees) at 3 MPH (3 knots; 1.5 m/s)
Visibility: 6 or more miles (10+ km)
Ceiling: ceiling and visibility are OK
Clouds: unknown
Weather: no significant weather observed at this time

METAR text: EPBY 260200Z 11002KT CAVOK 11/08 Q1011
Conditions at: EPBY (BYDGOSZCZ , PL) observed 0200 UTC 26 April 2019
Temperature: 11.0°C (52°F)
Dewpoint: 8.0°C (46°F) [RH = 82%]
Pressure (altimeter): 29.85 inches Hg (1011.0 mb)
Winds: from the ESE (110 degrees) at 2 MPH (2 knots; 1.0 m/s)
Visibility: 6 or more miles (10+ km)
Ceiling: ceiling and visibility are OK
Clouds: unknown
Weather: no significant weather observed at this time

Forecast for: EPBY (BYDGOSZCZ , PL)
Text: TAF EPBY 252330Z 2600/2624 VRB02KT CAVOK
Forecast period: 0000 to 0700 UTC 26 April 2019
Forecast type: FROM: standard forecast or significant change
Winds: variable direction winds at 2 MPH (2 knots; 1.0 m/s)
Visibility: 6 or more miles 10+ km)
Ceiling: unknown
Clouds: missing
Weather: NSW  (no significant weather)
Text: BECMG 2607/2610 14010KT
Forecast period: 0700 UTC 26 April 2019 to 0000 UTC 27 April 2019
Forecast type: BECOMING: Conditions expected to become as follows by 1000 UTC 26 April 2019
Winds: from the SE (140 degrees) at 12 MPH (10 knots; 5.1 m/s)
Visibility: 6 or more miles 10+ km)
Ceiling: unknown
Clouds: missing
Weather: NSW  (no significant weather)
Text: PROB30
Forecast period: 1300 to 1800 UTC 26 April 2019
Forecast type: TEMPORARY: The following changes expected for less than half the time period
Visibility: missing
Ceiling: at least 12,000 feet AGL
Clouds: scattered clouds at 4500 feet AGL
Weather: no significant weather forecast for this period